createdAt,value
2024-01-20T00:00:09.989Z,1398.00
2024-01-20T00:01:10.049Z,1395.00
2024-01-20T00:02:10.120Z,1389.00
2024-01-20T00:03:10.092Z,1389.00
2024-01-20T00:04:10.124Z,1385.00
2024-01-20T00:05:10.166Z,1382.00
2024-01-20T00:06:10.176Z,1375.00
2024-01-20T00:07:10.210Z,1366.00
2024-01-20T00:08:10.216Z,1369.00
2024-01-20T00:09:10.212Z,1380.00
2024-01-20T00:10:10.224Z,1386.00
2024-01-20T00:11:10.295Z,1376.00
2024-01-20T00:12:10.219Z,1373.00
2024-01-20T00:13:10.217Z,1363.00
2024-01-20T00:14:10.304Z,1358.00
2024-01-20T00:15:10.277Z,1358.00
2024-01-20T00:16:10.244Z,1360.00
2024-01-20T00:17:20.664Z,1358.00
2024-01-20T00:18:11.601Z,1353.00
2024-01-20T00:19:10.300Z,1353.00
2024-01-20T00:20:10.779Z,1354.00
2024-01-20T00:21:10.229Z,1354.00
2024-01-20T00:22:10.231Z,1352.00
2024-01-20T00:23:10.315Z,1346.00
2024-01-20T00:24:10.238Z,1336.00
2024-01-20T00:25:10.938Z,1336.00
2024-01-20T00:26:10.291Z,1336.00
2024-01-20T00:27:10.232Z,1341.00
2024-01-20T00:28:10.252Z,1343.00
2024-01-20T00:29:10.271Z,1341.00
2024-01-20T00:30:10.249Z,1340.00
2024-01-20T00:31:10.236Z,1338.00
2024-01-20T00:32:10.384Z,1339.00
2024-01-20T00:33:10.361Z,1343.00
2024-01-20T00:34:10.295Z,1343.00
2024-01-20T00:35:10.318Z,1324.00
2024-01-20T00:36:10.272Z,1318.00
2024-01-20T00:37:10.238Z,1328.00
2024-01-20T00:38:10.333Z,1320.00
2024-01-20T00:39:10.251Z,1303.00
2024-01-20T00:40:10.277Z,1293.00
2024-01-20T00:41:10.307Z,1303.00
2024-01-20T00:42:10.332Z,1298.00
2024-01-20T00:43:10.352Z,1297.00
2024-01-20T00:44:10.419Z,1295.00
2024-01-20T00:45:10.424Z,1296.00
2024-01-20T00:46:10.437Z,1292.00
2024-01-20T00:47:10.604Z,1299.00
2024-01-20T00:48:10.549Z,1294.00
2024-01-20T00:49:10.570Z,1293.00
2024-01-20T00:50:10.562Z,1297.00
2024-01-20T00:51:10.571Z,1295.00
2024-01-20T00:52:10.602Z,1292.00
2024-01-20T00:53:10.666Z,1286.00
2024-01-20T00:54:10.664Z,1281.00
2024-01-20T00:55:10.686Z,1283.00
2024-01-20T00:56:10.791Z,1279.00
2024-01-20T00:57:10.781Z,1277.00
2024-01-20T00:58:10.801Z,1288.00
2024-01-20T00:59:10.904Z,1294.00
2024-01-20T01:00:10.859Z,1288.00
2024-01-20T01:01:10.900Z,1284.00
2024-01-20T01:02:11.875Z,1254.00
2024-01-20T01:03:10.983Z,1260.00
2024-01-20T01:04:10.982Z,1251.00
2024-01-20T01:05:11.035Z,1247.00
2024-01-20T01:06:11.040Z,1251.00
2024-01-20T01:07:11.048Z,1256.00
2024-01-20T01:08:11.138Z,1260.00
2024-01-20T01:09:11.187Z,1263.00
2024-01-20T01:10:11.149Z,1259.00
2024-01-20T01:11:11.200Z,1258.00
2024-01-20T01:12:11.223Z,1257.00
2024-01-20T01:13:11.290Z,1254.00
2024-01-20T01:14:11.354Z,1258.00
2024-01-20T01:15:11.282Z,1254.00
2024-01-20T01:16:11.332Z,1260.00
2024-01-20T01:17:11.409Z,1258.00
2024-01-20T01:18:11.417Z,1251.00
2024-01-20T01:19:11.407Z,1251.00
2024-01-20T01:20:11.479Z,1245.00
2024-01-20T01:21:11.466Z,1247.00
2024-01-20T01:22:11.523Z,1245.00
2024-01-20T01:23:11.566Z,1245.00
2024-01-20T01:24:11.595Z,1239.00
2024-01-20T01:25:11.620Z,1239.00
2024-01-20T01:26:11.744Z,1235.00
2024-01-20T01:27:11.712Z,1232.00
2024-01-20T01:28:11.712Z,1229.00
2024-01-20T01:29:11.734Z,1216.00
2024-01-20T01:30:11.808Z,1221.00
2024-01-20T01:31:11.795Z,1221.00
2024-01-20T01:32:11.928Z,1218.00
2024-01-20T01:33:11.951Z,1213.00
2024-01-20T01:34:11.943Z,1215.00
2024-01-20T01:35:11.977Z,1215.00
2024-01-20T01:36:11.962Z,1209.00
2024-01-20T01:37:12.004Z,1210.00
2024-01-20T01:38:12.157Z,1220.00
2024-01-20T01:39:12.053Z,1215.00
2024-01-20T01:40:12.091Z,1216.00
2024-01-20T01:41:12.201Z,1205.00
2024-01-20T01:42:12.160Z,1205.00
2024-01-20T01:43:12.189Z,1198.00
2024-01-20T01:44:12.284Z,1187.00
2024-01-20T01:45:12.264Z,1185.00
2024-01-20T01:46:12.304Z,1190.00
2024-01-20T01:47:12.392Z,1200.00
2024-01-20T01:48:12.429Z,1202.00
2024-01-20T01:49:12.402Z,1200.00
2024-01-20T01:50:12.459Z,1194.00
2024-01-20T01:51:12.467Z,1192.00
2024-01-20T01:52:12.516Z,1186.00
2024-01-20T01:53:12.533Z,1189.00
2024-01-20T01:54:12.588Z,1188.00
2024-01-20T01:55:12.610Z,1191.00
2024-01-20T01:56:12.661Z,1189.00
2024-01-20T01:57:12.724Z,1153.00
2024-01-20T01:58:13.385Z,1147.00
2024-01-20T01:59:12.777Z,1165.00
2024-01-20T02:00:12.841Z,1165.00
2024-01-20T02:01:12.898Z,1163.00
2024-01-20T02:02:12.881Z,1167.00
2024-01-20T02:03:13.003Z,1171.00
2024-01-20T02:04:13.034Z,1168.00
2024-01-20T02:05:12.991Z,1172.00
2024-01-20T02:06:13.093Z,1168.00
2024-01-20T02:07:13.163Z,1164.00
2024-01-20T02:08:13.103Z,1152.00
2024-01-20T02:09:13.136Z,1154.00
2024-01-20T02:10:13.167Z,1162.00
2024-01-20T02:11:13.198Z,1169.00
2024-01-20T02:12:13.254Z,1171.00
2024-01-20T02:13:13.279Z,1168.00
2024-01-20T02:14:13.339Z,1172.00
2024-01-20T02:15:15.064Z,1170.00
2024-01-20T02:16:13.506Z,1168.00
2024-01-20T02:17:13.534Z,1153.00
2024-01-20T02:18:13.674Z,1152.00
2024-01-20T02:19:13.680Z,1137.00
2024-01-20T02:20:13.688Z,1133.00
2024-01-20T02:21:13.717Z,1142.00
2024-01-20T02:22:13.789Z,1150.00
2024-01-20T02:23:13.808Z,1151.00
2024-01-20T02:24:13.898Z,1146.00
2024-01-20T02:25:13.892Z,1147.00
2024-01-20T02:26:13.929Z,1148.00
2024-01-20T02:27:13.972Z,1145.00
2024-01-20T02:28:14.037Z,1136.00
2024-01-20T02:29:14.045Z,1132.00
2024-01-20T02:30:14.111Z,1132.00
2024-01-20T02:31:14.124Z,1137.00
2024-01-20T02:32:14.176Z,1138.00
2024-01-20T02:33:14.334Z,1139.00
2024-01-20T02:34:14.381Z,1134.00
2024-01-20T02:35:14.261Z,1126.00
2024-01-20T02:36:14.395Z,1124.00
2024-01-20T02:37:14.362Z,1128.00
2024-01-20T02:38:14.419Z,1126.00
2024-01-20T02:39:14.477Z,1128.00
2024-01-20T02:40:14.515Z,1124.00
2024-01-20T02:41:14.540Z,1122.00
2024-01-20T02:42:14.600Z,1121.00
2024-01-20T02:43:14.621Z,1119.00
2024-01-20T02:44:14.687Z,1111.00
2024-01-20T02:45:14.737Z,1114.00
2024-01-20T02:46:14.759Z,1116.00
2024-01-20T02:47:14.808Z,1115.00
2024-01-20T02:48:17.273Z,1102.00
2024-01-20T02:49:14.923Z,1103.00
2024-01-20T02:50:14.853Z,1097.00
2024-01-20T02:51:14.877Z,1097.00
2024-01-20T02:52:14.884Z,1101.00
2024-01-20T02:53:14.911Z,1106.00
2024-01-20T02:54:14.933Z,1111.00
2024-01-20T02:55:14.847Z,1112.00
2024-01-20T02:56:14.872Z,1110.00
2024-01-20T02:57:14.877Z,1109.00
2024-01-20T02:58:14.874Z,1111.00
2024-01-20T02:59:14.858Z,1112.00
2024-01-20T03:00:14.942Z,1104.00
2024-01-20T03:01:14.915Z,1100.00
2024-01-20T03:02:14.861Z,1097.00
2024-01-20T03:03:14.961Z,1091.00
2024-01-20T03:04:15.051Z,1085.00
2024-01-20T03:05:14.898Z,1089.00
2024-01-20T03:06:14.878Z,1099.00
2024-01-20T03:07:14.885Z,1095.00
2024-01-20T03:08:14.867Z,1097.00
2024-01-20T03:09:14.928Z,1090.00
2024-01-20T03:10:14.896Z,1088.00
2024-01-20T03:11:14.881Z,1091.00
2024-01-20T03:12:14.927Z,1097.00
2024-01-20T03:13:14.882Z,1103.00
2024-01-20T03:14:14.879Z,1098.00
2024-01-20T03:15:14.985Z,1099.00
2024-01-20T03:16:14.889Z,1096.00
2024-01-20T03:17:14.893Z,1093.00
2024-01-20T03:18:14.946Z,1092.00
2024-01-20T03:19:14.941Z,1089.00
2024-01-20T03:20:14.900Z,1081.00
2024-01-20T03:21:14.924Z,1081.00
2024-01-20T03:22:14.943Z,1076.00
2024-01-20T03:23:14.990Z,1067.00
2024-01-20T03:24:15.073Z,1069.00
2024-01-20T03:25:15.109Z,1069.00
2024-01-20T03:26:15.162Z,1070.00
2024-01-20T03:27:15.272Z,1068.00
2024-01-20T03:28:15.256Z,1063.00
2024-01-20T03:29:15.336Z,1061.00
2024-01-20T03:30:15.356Z,1058.00
2024-01-20T03:31:15.415Z,1052.00
2024-01-20T03:32:15.449Z,1046.00
2024-01-20T03:33:15.624Z,1043.00
2024-01-20T03:34:15.623Z,1037.00
2024-01-20T03:35:15.588Z,1041.00
2024-01-20T03:36:15.662Z,1050.00
2024-01-20T03:37:15.696Z,1051.00
2024-01-20T03:38:15.734Z,1054.00
2024-01-20T03:39:15.830Z,1055.00
2024-01-20T03:40:15.834Z,1055.00
2024-01-20T03:41:15.891Z,1054.00
2024-01-20T03:42:16.005Z,1052.00
2024-01-20T03:43:15.997Z,1054.00
2024-01-20T03:44:16.044Z,1056.00
2024-01-20T03:45:16.142Z,1046.00
2024-01-20T03:46:16.133Z,1034.00
2024-01-20T03:47:16.198Z,1043.00
2024-01-20T03:48:16.372Z,1039.00
2024-01-20T03:49:16.490Z,1037.00
2024-01-20T03:50:16.443Z,1040.00
2024-01-20T03:51:16.462Z,1040.00
2024-01-20T03:52:16.470Z,1041.00
2024-01-20T03:53:16.516Z,1039.00
2024-01-20T03:54:16.567Z,1031.00
2024-01-20T03:55:16.617Z,1028.00
2024-01-20T03:56:16.665Z,1027.00
2024-01-20T03:57:18.626Z,1026.00
2024-01-20T03:58:16.761Z,1024.00
2024-01-20T03:59:16.829Z,1021.00
2024-01-20T04:00:16.901Z,1022.00
2024-01-20T04:01:16.978Z,1019.00
2024-01-20T04:02:16.991Z,1017.00
2024-01-20T04:03:17.126Z,1010.00
2024-01-20T04:04:17.135Z,1006.00
2024-01-20T04:05:17.173Z,1008.00
2024-01-20T04:06:17.242Z,1010.00
2024-01-20T04:07:17.291Z,1015.00
2024-01-20T04:08:17.331Z,1012.00
2024-01-20T04:09:17.432Z,1012.00
2024-01-20T04:10:17.432Z,1016.00
2024-01-20T04:11:18.775Z,1016.00
2024-01-20T04:12:17.549Z,1014.00
2024-01-20T04:13:17.598Z,1016.00
2024-01-20T04:14:17.644Z,1014.00
2024-01-20T04:15:17.740Z,1008.00
2024-01-20T04:16:18.444Z,1007.00
2024-01-20T04:17:17.816Z,1004.00
2024-01-20T04:18:17.953Z,1021.00
2024-01-20T04:19:18.057Z,1030.00
2024-01-20T04:20:17.985Z,1019.00
2024-01-20T04:21:18.065Z,1010.00
2024-01-20T04:22:18.104Z,1007.00
2024-01-20T04:23:18.164Z,1000.00
2024-01-20T04:24:18.220Z,993.00
2024-01-20T04:25:18.253Z,995.00
2024-01-20T04:26:18.306Z,992.00
2024-01-20T04:27:18.417Z,988.00
2024-01-20T04:28:18.425Z,985.00
2024-01-20T04:29:18.499Z,983.00
2024-01-20T04:30:18.632Z,984.00
2024-01-20T04:31:18.612Z,981.00
2024-01-20T04:32:18.653Z,978.00
2024-01-20T04:33:18.813Z,975.00
2024-01-20T04:34:18.828Z,971.00
2024-01-20T04:35:26.594Z,963.00
2024-01-20T04:36:26.619Z,970.00
2024-01-20T04:37:26.576Z,975.00
2024-01-20T04:38:26.588Z,968.00
2024-01-20T04:39:26.626Z,963.00
2024-01-20T04:40:26.592Z,963.00
2024-01-20T04:41:26.594Z,960.00
2024-01-20T04:42:26.621Z,959.00
2024-01-20T04:43:26.582Z,961.00
2024-01-20T04:44:26.597Z,959.00
2024-01-20T04:45:26.618Z,963.00
2024-01-20T04:46:26.657Z,960.00
2024-01-20T04:47:26.638Z,956.00
2024-01-20T04:48:26.721Z,949.00
2024-01-20T04:49:26.665Z,948.00
2024-01-20T04:50:26.659Z,943.00
2024-01-20T04:51:26.741Z,942.00
2024-01-20T04:52:26.773Z,945.00
2024-01-20T04:53:26.805Z,948.00
2024-01-20T04:54:26.894Z,944.00
2024-01-20T04:55:26.887Z,956.00
2024-01-20T04:56:26.947Z,958.00
2024-01-20T04:57:27.036Z,955.00
2024-01-20T04:58:27.048Z,954.00
2024-01-20T04:59:27.093Z,957.00
2024-01-20T05:00:27.177Z,959.00
2024-01-20T05:01:27.216Z,954.00
2024-01-20T05:02:27.250Z,946.00
2024-01-20T05:03:27.355Z,946.00
2024-01-20T05:04:27.420Z,942.00
2024-01-20T05:05:27.401Z,935.00
2024-01-20T05:06:27.560Z,934.00
2024-01-20T05:07:27.514Z,937.00
2024-01-20T05:08:27.568Z,928.00
2024-01-20T05:09:27.665Z,920.00
2024-01-20T05:10:27.674Z,928.00
2024-01-20T05:11:27.729Z,929.00
2024-01-20T05:12:27.807Z,930.00
2024-01-20T05:13:27.836Z,929.00
2024-01-20T05:14:27.891Z,923.00
2024-01-20T05:15:27.982Z,919.00
2024-01-20T05:16:27.999Z,919.00
2024-01-20T05:17:28.092Z,914.00
2024-01-20T05:18:28.226Z,912.00
2024-01-20T05:19:28.341Z,908.00
2024-01-20T05:20:28.236Z,905.00
2024-01-20T05:21:28.318Z,906.00
2024-01-20T05:22:28.332Z,909.00
2024-01-20T05:23:28.381Z,912.00
2024-01-20T05:24:28.496Z,909.00
2024-01-20T05:25:28.491Z,909.00
2024-01-20T05:26:28.540Z,913.00
2024-01-20T05:27:28.669Z,918.00
2024-01-20T05:28:28.649Z,916.00
2024-01-20T05:29:28.681Z,915.00
2024-01-20T05:30:28.782Z,912.00
2024-01-20T05:31:28.792Z,910.00
2024-01-20T05:32:28.900Z,914.00
2024-01-20T05:33:28.981Z,914.00
2024-01-20T05:34:29.063Z,911.00
2024-01-20T05:35:29.029Z,910.00
2024-01-20T05:36:29.196Z,907.00
2024-01-20T05:37:29.125Z,906.00
2024-01-20T05:38:29.185Z,909.00
2024-01-20T05:39:29.363Z,906.00
2024-01-20T05:40:29.269Z,908.00
2024-01-20T05:41:29.326Z,907.00
2024-01-20T05:42:29.547Z,907.00
2024-01-20T05:43:29.440Z,906.00
2024-01-20T05:44:29.520Z,908.00
2024-01-20T05:45:29.598Z,904.00
2024-01-20T05:46:29.596Z,903.00
2024-01-20T05:47:29.671Z,899.00
2024-01-20T05:48:29.787Z,892.00
2024-01-20T05:49:29.852Z,887.00
2024-01-20T05:50:29.833Z,883.00
2024-01-20T05:51:29.912Z,891.00
2024-01-20T05:52:29.943Z,896.00
2024-01-20T05:53:30.004Z,900.00
2024-01-20T05:54:30.095Z,904.00
2024-01-20T05:55:30.123Z,905.00
2024-01-20T05:56:30.207Z,902.00
2024-01-20T05:57:30.262Z,894.00
2024-01-20T05:58:30.307Z,893.00
2024-01-20T05:59:30.361Z,890.00
2024-01-20T06:00:30.480Z,889.00
2024-01-20T06:01:30.498Z,884.00
2024-01-20T06:02:30.548Z,880.00
2024-01-20T06:03:30.655Z,885.00
2024-01-20T06:04:30.772Z,885.00
2024-01-20T06:05:30.713Z,882.00
2024-01-20T06:06:30.840Z,886.00
2024-01-20T06:07:30.823Z,886.00
2024-01-20T06:08:30.894Z,875.00
2024-01-20T06:09:30.998Z,864.00
2024-01-20T06:10:31.043Z,864.00
2024-01-20T06:11:31.047Z,868.00
2024-01-20T06:12:31.207Z,868.00
2024-01-20T06:13:31.169Z,875.00
2024-01-20T06:14:31.251Z,875.00
2024-01-20T06:15:31.395Z,872.00
2024-01-20T06:16:31.357Z,866.00
2024-01-20T06:17:31.429Z,863.00
2024-01-20T06:18:31.502Z,862.00
2024-01-20T06:19:31.562Z,865.00
2024-01-20T06:20:31.610Z,868.00
2024-01-20T06:21:31.685Z,869.00
2024-01-20T06:22:31.687Z,874.00
2024-01-20T06:23:31.742Z,874.00
2024-01-20T06:24:31.960Z,872.00
2024-01-20T06:25:31.858Z,868.00
2024-01-20T06:26:31.920Z,872.00
2024-01-20T06:27:32.026Z,869.00
2024-01-20T06:28:32.031Z,863.00
2024-01-20T06:29:32.090Z,859.00
2024-01-20T06:30:32.244Z,856.00
2024-01-20T06:31:32.205Z,853.00
2024-01-20T06:32:32.335Z,855.00
2024-01-20T06:33:32.441Z,857.00
2024-01-20T06:34:32.454Z,859.00
2024-01-20T06:35:32.439Z,862.00
2024-01-20T06:36:32.588Z,863.00
2024-01-20T06:37:32.569Z,862.00
2024-01-20T06:38:32.612Z,860.00
2024-01-20T06:39:32.706Z,854.00
2024-01-20T06:40:32.747Z,852.00
2024-01-20T06:41:32.785Z,853.00
2024-01-20T06:42:32.877Z,850.00
2024-01-20T06:43:32.896Z,853.00
2024-01-20T06:44:33.301Z,857.00
2024-01-20T06:45:33.005Z,867.00
2024-01-20T06:46:33.071Z,878.00
2024-01-20T06:47:33.156Z,886.00
2024-01-20T06:48:33.359Z,890.00
2024-01-20T06:49:33.439Z,892.00
2024-01-20T06:50:33.320Z,888.00
2024-01-20T06:51:33.413Z,886.00
2024-01-20T06:52:33.445Z,887.00
2024-01-20T06:53:33.481Z,888.00
2024-01-20T06:54:33.635Z,889.00
2024-01-20T06:55:33.604Z,891.00
2024-01-20T06:56:33.666Z,894.00
2024-01-20T06:57:33.826Z,893.00
2024-01-20T06:58:33.767Z,895.00
2024-01-20T06:59:33.801Z,891.00
2024-01-20T07:00:33.995Z,879.00
2024-01-20T07:01:33.917Z,861.00
2024-01-20T07:02:33.970Z,858.00
2024-01-20T07:03:34.117Z,856.00
2024-01-20T07:04:34.123Z,852.00
2024-01-20T07:05:34.206Z,859.00
2024-01-20T07:06:34.262Z,858.00
2024-01-20T07:07:34.286Z,850.00
2024-01-20T07:08:34.350Z,848.00
2024-01-20T07:09:34.439Z,844.00
2024-01-20T07:10:34.453Z,837.00
2024-01-20T07:11:34.510Z,836.00
2024-01-20T07:12:34.661Z,836.00
2024-01-20T07:13:34.602Z,836.00
2024-01-20T07:14:34.669Z,835.00
2024-01-20T07:15:34.706Z,833.00
2024-01-20T07:16:34.760Z,833.00
2024-01-20T07:17:34.819Z,832.00
2024-01-20T07:18:34.921Z,830.00
2024-01-20T07:19:34.958Z,830.00
2024-01-20T07:20:34.998Z,829.00
2024-01-20T07:21:35.092Z,829.00
2024-01-20T07:22:35.085Z,832.00
2024-01-20T07:23:35.165Z,836.00
2024-01-20T07:24:35.286Z,837.00
2024-01-20T07:25:35.257Z,842.00
2024-01-20T07:26:35.302Z,840.00
2024-01-20T07:27:35.400Z,839.00
2024-01-20T07:28:35.437Z,836.00
2024-01-20T07:29:35.496Z,835.00
2024-01-20T07:30:35.854Z,833.00
2024-01-20T07:31:35.583Z,830.00
2024-01-20T07:32:35.666Z,833.00
2024-01-20T07:33:35.800Z,830.00
2024-01-20T07:34:35.810Z,825.00
2024-01-20T07:35:35.810Z,820.00
2024-01-20T07:36:35.911Z,817.00
2024-01-20T07:37:35.895Z,818.00
2024-01-20T07:38:35.962Z,819.00
2024-01-20T07:39:36.043Z,819.00
2024-01-20T07:40:36.061Z,820.00
2024-01-20T07:41:36.099Z,819.00
2024-01-20T07:42:36.342Z,822.00
2024-01-20T07:43:36.223Z,823.00
2024-01-20T07:44:36.280Z,824.00
2024-01-20T07:45:36.365Z,828.00
2024-01-20T07:46:36.373Z,823.00
2024-01-20T07:47:36.442Z,822.00
2024-01-20T07:48:36.607Z,821.00
2024-01-20T07:49:36.626Z,820.00
2024-01-20T07:50:36.580Z,820.00
2024-01-20T07:51:36.733Z,819.00
2024-01-20T07:52:40.079Z,819.00
2024-01-20T07:53:36.691Z,818.00
2024-01-20T07:54:36.863Z,820.00
2024-01-20T07:55:36.685Z,819.00
2024-01-20T07:56:36.685Z,820.00
2024-01-20T07:57:36.789Z,820.00
2024-01-20T07:58:36.698Z,818.00
2024-01-20T07:59:36.686Z,821.00
2024-01-20T08:00:36.882Z,822.00
2024-01-20T08:01:36.737Z,819.00
2024-01-20T08:02:36.697Z,813.00
2024-01-20T08:03:36.802Z,808.00
2024-01-20T08:04:36.883Z,811.00
2024-01-20T08:05:36.696Z,812.00
2024-01-20T08:06:36.779Z,815.00
2024-01-20T08:07:36.699Z,816.00
2024-01-20T08:08:36.719Z,813.00
2024-01-20T08:09:36.787Z,815.00
2024-01-20T08:10:36.714Z,817.00
2024-01-20T08:11:36.688Z,814.00
2024-01-20T08:12:36.843Z,808.00
2024-01-20T08:13:36.701Z,805.00
2024-01-20T08:14:36.708Z,800.00
2024-01-20T08:15:36.857Z,801.00
2024-01-20T08:16:36.700Z,802.00
2024-01-20T08:17:36.724Z,802.00
2024-01-20T08:18:36.865Z,800.00
2024-01-20T08:19:36.766Z,799.00
2024-01-20T08:20:36.716Z,797.00
2024-01-20T08:21:36.743Z,795.00
2024-01-20T08:22:36.724Z,794.00
2024-01-20T08:23:36.716Z,794.00
2024-01-20T08:24:36.774Z,795.00
2024-01-20T08:25:36.780Z,795.00
2024-01-20T08:26:36.841Z,798.00
2024-01-20T08:27:36.964Z,797.00
2024-01-20T08:28:36.955Z,794.00
2024-01-20T08:29:37.008Z,792.00
2024-01-20T08:30:37.131Z,794.00
2024-01-20T08:31:37.084Z,791.00
2024-01-20T08:32:37.197Z,789.00
2024-01-20T08:33:37.295Z,792.00
2024-01-20T08:34:38.520Z,792.00
2024-01-20T08:35:37.265Z,791.00
2024-01-20T08:36:37.334Z,789.00
2024-01-20T08:37:37.327Z,788.00
2024-01-20T08:38:37.387Z,788.00
2024-01-20T08:39:37.456Z,788.00
2024-01-20T08:40:37.457Z,786.00
2024-01-20T08:41:37.488Z,789.00
2024-01-20T08:42:37.572Z,790.00
2024-01-20T08:43:37.534Z,790.00
2024-01-20T08:44:37.571Z,788.00
2024-01-20T08:45:37.710Z,787.00
2024-01-20T08:46:37.742Z,789.00
2024-01-20T08:47:37.672Z,789.00
2024-01-20T08:48:37.751Z,787.00
2024-01-20T08:49:37.725Z,782.00
2024-01-20T08:50:37.794Z,784.00
2024-01-20T08:51:37.811Z,786.00
2024-01-20T08:52:37.842Z,785.00
2024-01-20T08:53:37.881Z,782.00
2024-01-20T08:54:38.031Z,781.00
2024-01-20T08:55:37.980Z,779.00
2024-01-20T08:56:38.055Z,777.00
2024-01-20T08:57:38.100Z,774.00
2024-01-20T08:58:38.110Z,777.00
2024-01-20T08:59:38.183Z,776.00
2024-01-20T09:00:38.293Z,775.00
2024-01-20T09:01:38.238Z,772.00
2024-01-20T09:02:38.283Z,770.00
2024-01-20T09:03:43.384Z,769.00
2024-01-20T09:04:38.321Z,767.00
2024-01-20T09:05:39.564Z,765.00
2024-01-20T09:06:38.454Z,769.00
2024-01-20T09:07:46.222Z,774.00
2024-01-20T09:08:46.213Z,772.00
2024-01-20T09:09:46.208Z,768.00
2024-01-20T09:10:46.220Z,763.00
2024-01-20T09:11:46.216Z,762.00
2024-01-20T09:12:46.227Z,762.00
2024-01-20T09:13:46.224Z,761.00
2024-01-20T09:14:46.243Z,763.00
2024-01-20T09:15:46.295Z,765.00
2024-01-20T09:16:46.234Z,765.00
2024-01-20T09:17:46.241Z,762.00
2024-01-20T09:18:46.407Z,760.00
2024-01-20T09:19:46.364Z,765.00
2024-01-20T09:20:46.250Z,763.00
2024-01-20T09:21:46.222Z,763.00
2024-01-20T09:22:46.229Z,762.00
2024-01-20T09:23:46.227Z,764.00
2024-01-20T09:24:46.275Z,764.00
2024-01-20T09:25:46.232Z,762.00
2024-01-20T09:26:46.239Z,762.00
2024-01-20T09:27:46.298Z,764.00
2024-01-20T09:28:46.331Z,760.00
2024-01-20T09:29:46.229Z,758.00
2024-01-20T09:30:46.287Z,759.00
2024-01-20T09:31:46.237Z,761.00
2024-01-20T09:32:46.298Z,764.00
2024-01-20T09:33:46.326Z,767.00
2024-01-20T09:34:46.287Z,765.00
2024-01-20T09:35:46.236Z,764.00
2024-01-20T09:36:46.393Z,764.00
2024-01-20T09:37:46.245Z,762.00
2024-01-20T09:38:46.264Z,765.00
2024-01-20T09:39:46.287Z,765.00
2024-01-20T09:40:46.258Z,767.00
2024-01-20T09:41:46.256Z,767.00
2024-01-20T09:42:46.282Z,768.00
2024-01-20T09:43:46.260Z,766.00
2024-01-20T09:44:46.250Z,767.00
2024-01-20T09:45:46.319Z,763.00
2024-01-20T09:46:46.262Z,765.00
2024-01-20T09:47:46.322Z,768.00
2024-01-20T09:48:46.544Z,765.00
2024-01-20T09:49:46.346Z,764.00
2024-01-20T09:50:46.273Z,763.00
2024-01-20T09:51:46.280Z,759.00
2024-01-20T09:52:46.300Z,758.00
2024-01-20T09:53:56.514Z,756.00
2024-01-20T09:54:46.383Z,756.00
2024-01-20T09:55:46.364Z,756.00
2024-01-20T09:56:46.339Z,754.00
2024-01-20T09:57:46.328Z,754.00
2024-01-20T09:58:46.346Z,749.00
2024-01-20T09:59:46.342Z,748.00
2024-01-20T10:00:46.448Z,750.00
2024-01-20T10:01:46.459Z,752.00
2024-01-20T10:02:46.386Z,749.00
2024-01-20T10:03:46.397Z,747.00
2024-01-20T10:04:46.459Z,749.00
2024-01-20T10:05:46.446Z,748.00
2024-01-20T10:06:46.380Z,748.00
2024-01-20T10:07:46.354Z,750.00
2024-01-20T10:08:46.362Z,747.00
2024-01-20T10:09:46.351Z,747.00
2024-01-20T10:10:46.350Z,751.00
2024-01-20T10:11:46.349Z,753.00
2024-01-20T10:12:46.363Z,751.00
2024-01-20T10:13:46.356Z,747.00
2024-01-20T10:14:46.384Z,743.00
2024-01-20T10:15:46.455Z,743.00
2024-01-20T10:16:46.375Z,746.00
2024-01-20T10:17:46.379Z,746.00
2024-01-20T10:18:46.384Z,746.00
2024-01-20T10:19:46.415Z,747.00
2024-01-20T10:20:48.766Z,745.00
2024-01-20T10:21:46.402Z,737.00
2024-01-20T10:22:46.390Z,734.00
2024-01-20T10:23:46.368Z,734.00
2024-01-20T10:24:46.394Z,739.00
2024-01-20T10:25:46.377Z,741.00
2024-01-20T10:26:46.381Z,742.00
2024-01-20T10:27:46.418Z,741.00
2024-01-20T10:28:51.421Z,736.00
2024-01-20T10:29:46.392Z,734.00
2024-01-20T10:30:46.655Z,733.00
2024-01-20T10:31:46.394Z,733.00
2024-01-20T10:32:57.153Z,734.00
2024-01-20T10:33:57.651Z,731.00
2024-01-20T10:34:46.672Z,731.00
2024-01-20T10:35:46.403Z,732.00
2024-01-20T10:36:46.407Z,734.00
2024-01-20T10:37:46.435Z,736.00
2024-01-20T10:38:46.471Z,737.00
2024-01-20T10:39:46.493Z,736.00
2024-01-20T10:40:46.669Z,736.00
2024-01-20T10:41:46.543Z,734.00
2024-01-20T10:42:46.582Z,739.00
2024-01-20T10:43:46.603Z,739.00
2024-01-20T10:44:46.636Z,737.00
2024-01-20T10:45:46.666Z,731.00
2024-01-20T10:46:46.726Z,729.00
2024-01-20T10:47:46.756Z,727.00
2024-01-20T10:48:46.858Z,725.00
2024-01-20T10:49:46.970Z,726.00
2024-01-20T10:50:46.831Z,726.00
2024-01-20T10:51:46.936Z,721.00
2024-01-20T10:52:46.899Z,721.00
2024-01-20T10:53:46.929Z,722.00
2024-01-20T10:54:47.024Z,726.00
2024-01-20T10:55:46.993Z,727.00
2024-01-20T10:56:47.039Z,727.00
2024-01-20T10:57:47.041Z,726.00
2024-01-20T10:58:47.069Z,725.00
2024-01-20T10:59:47.114Z,724.00
2024-01-20T11:00:47.217Z,724.00
2024-01-20T11:01:47.161Z,724.00
2024-01-20T11:02:47.262Z,726.00
2024-01-20T11:03:47.328Z,727.00
2024-01-20T11:04:47.313Z,725.00
2024-01-20T11:05:47.310Z,717.00
2024-01-20T11:06:47.339Z,717.00
2024-01-20T11:07:47.351Z,717.00
2024-01-20T11:08:47.394Z,717.00
2024-01-20T11:09:47.432Z,718.00
2024-01-20T11:10:47.465Z,719.00
2024-01-20T11:11:47.484Z,720.00
2024-01-20T11:12:47.526Z,722.00
2024-01-20T11:13:47.537Z,722.00
2024-01-20T11:14:47.589Z,723.00
2024-01-20T11:15:47.616Z,722.00
2024-01-20T11:16:47.658Z,719.00
2024-01-20T11:17:47.731Z,720.00
2024-01-20T11:18:47.817Z,721.00
2024-01-20T11:19:47.833Z,724.00
2024-01-20T11:20:47.805Z,723.00
2024-01-20T11:21:47.872Z,723.00
2024-01-20T11:22:47.923Z,722.00
2024-01-20T11:23:47.943Z,720.00
2024-01-20T11:24:48.113Z,722.00
2024-01-20T11:25:48.102Z,720.00
2024-01-20T11:26:48.108Z,720.00
2024-01-20T11:27:48.141Z,721.00
2024-01-20T11:28:48.164Z,720.00
2024-01-20T11:29:48.213Z,722.00
2024-01-20T11:30:48.379Z,723.00
2024-01-20T11:31:48.309Z,724.00
2024-01-20T11:32:48.375Z,722.00
2024-01-20T11:33:48.516Z,721.00
2024-01-20T11:34:48.540Z,721.00
2024-01-20T11:35:48.476Z,720.00
2024-01-20T11:36:48.544Z,719.00
2024-01-20T11:37:48.556Z,718.00
2024-01-20T11:38:48.605Z,719.00
2024-01-20T11:39:48.683Z,723.00
2024-01-20T11:40:48.705Z,725.00
2024-01-20T11:41:48.762Z,726.00
2024-01-20T11:42:48.842Z,726.00
2024-01-20T11:43:48.863Z,724.00
2024-01-20T11:44:48.922Z,724.00
2024-01-20T11:45:49.038Z,724.00
2024-01-20T11:46:48.988Z,724.00
2024-01-20T11:47:49.077Z,722.00
2024-01-20T11:48:49.405Z,722.00
2024-01-20T11:49:49.239Z,718.00
2024-01-20T11:50:49.191Z,719.00
2024-01-20T11:51:49.254Z,722.00
2024-01-20T11:52:49.285Z,722.00
2024-01-20T11:53:49.334Z,714.00
2024-01-20T11:54:49.409Z,714.00
2024-01-20T11:55:49.444Z,713.00
2024-01-20T11:56:49.489Z,711.00
2024-01-20T11:57:49.631Z,712.00
2024-01-20T11:58:49.663Z,711.00
2024-01-20T11:59:49.677Z,709.00
2024-01-20T12:00:49.800Z,712.00
2024-01-20T12:01:49.914Z,712.00
2024-01-20T12:02:49.809Z,713.00
2024-01-20T12:03:49.992Z,717.00
2024-01-20T12:04:49.976Z,716.00
2024-01-20T12:05:50.040Z,717.00
2024-01-20T12:06:50.105Z,720.00
2024-01-20T12:07:50.120Z,724.00
2024-01-20T12:08:50.156Z,722.00
2024-01-20T12:09:50.237Z,722.00
2024-01-20T12:10:50.271Z,722.00
2024-01-20T12:11:50.351Z,724.00
2024-01-20T12:12:50.388Z,723.00
2024-01-20T12:13:50.474Z,715.00
2024-01-20T12:14:50.512Z,710.00
2024-01-20T12:15:50.608Z,709.00
2024-01-20T12:16:50.650Z,707.00
2024-01-20T12:17:50.802Z,704.00
2024-01-20T12:18:50.904Z,704.00
2024-01-20T12:19:50.905Z,706.00
2024-01-20T12:20:50.848Z,705.00